createdAt,value
2017-07-17T00:01:10.612Z,0
2017-07-17T00:02:12.484Z,0
2017-07-17T00:03:14.369Z,0
2017-07-17T00:04:16.257Z,0
2017-07-17T00:05:18.044Z,0
2017-07-17T00:06:19.857Z,0
2017-07-17T00:07:21.725Z,0
2017-07-17T00:08:23.613Z,0
2017-07-17T00:09:25.501Z,0
2017-07-17T00:10:39.648Z,0
2017-07-17T00:11:41.535Z,0
2017-07-17T00:12:43.406Z,0
2017-07-17T00:13:45.298Z,0
2017-07-17T00:14:47.131Z,0
2017-07-17T00:15:48.963Z,0
2017-07-17T00:16:50.854Z,0
2017-07-17T00:17:52.720Z,0
2017-07-17T00:18:54.581Z,0
2017-07-17T00:20:08.722Z,0
2017-07-17T00:21:10.587Z,0
2017-07-17T00:22:12.459Z,0
2017-07-17T00:23:14.351Z,0
2017-07-17T00:24:16.164Z,0
2017-07-17T00:25:17.974Z,0
2017-07-17T00:26:19.863Z,0
2017-07-17T00:27:21.752Z,0
2017-07-17T00:28:23.616Z,0
2017-07-17T00:29:37.760Z,0
2017-07-17T00:30:39.658Z,0
2017-07-17T00:31:41.522Z,0
2017-07-17T00:32:43.396Z,0
2017-07-17T00:33:45.204Z,0
2017-07-17T00:34:47.009Z,0
2017-07-17T00:35:48.881Z,0
2017-07-17T00:36:50.767Z,0
2017-07-17T00:37:52.658Z,0
2017-07-17T00:39:06.800Z,0
2017-07-17T00:40:08.672Z,0
2017-07-17T00:41:10.562Z,0
2017-07-17T00:42:12.424Z,0
2017-07-17T00:43:14.233Z,0
2017-07-17T00:44:16.042Z,0
2017-07-17T00:45:17.937Z,0
2017-07-17T00:46:19.804Z,0
2017-07-17T00:47:21.700Z,0
2017-07-17T00:48:35.864Z,0
2017-07-17T00:49:37.753Z,0
2017-07-17T00:50:39.619Z,0
2017-07-17T00:51:41.485Z,0
2017-07-17T00:52:43.295Z,0
2017-07-17T00:53:45.104Z,0
2017-07-17T00:54:46.993Z,0
2017-07-17T00:55:48.880Z,0
2017-07-17T00:56:50.753Z,0
2017-07-17T00:58:04.917Z,0
2017-07-17T00:59:06.809Z,0
2017-07-17T01:00:08.697Z,0
2017-07-17T01:01:10.565Z,0
2017-07-17T01:02:12.391Z,0
2017-07-17T01:03:14.201Z,0
2017-07-17T01:04:16.087Z,0
2017-07-17T01:05:17.958Z,0
2017-07-17T01:06:19.851Z,0
2017-07-17T01:07:34.016Z,0
2017-07-17T01:08:35.889Z,0
2017-07-17T01:09:37.775Z,0
2017-07-17T01:10:39.645Z,0
2017-07-17T01:11:41.456Z,0
2017-07-17T01:12:43.267Z,0
2017-07-17T01:13:45.159Z,0
2017-07-17T01:14:47.047Z,0
2017-07-17T01:15:48.937Z,0
2017-07-17T01:17:03.075Z,0
2017-07-17T01:18:04.945Z,0
2017-07-17T01:19:06.834Z,0
2017-07-17T01:20:08.702Z,0
2017-07-17T01:21:10.537Z,0
2017-07-17T01:22:12.368Z,0
2017-07-17T01:23:14.240Z,0
2017-07-17T01:24:16.104Z,0
2017-07-17T01:25:17.996Z,0
2017-07-17T01:26:32.140Z,0
2017-07-17T01:27:34.031Z,0
2017-07-17T01:28:35.920Z,0
2017-07-17T01:29:37.785Z,0
2017-07-17T01:30:39.592Z,0
2017-07-17T01:31:41.406Z,0
2017-07-17T01:32:43.298Z,0
2017-07-17T01:33:45.165Z,0
2017-07-17T01:34:47.054Z,0
2017-07-17T01:36:01.193Z,0
2017-07-17T01:37:03.067Z,0
2017-07-17T01:38:04.956Z,0
2017-07-17T01:39:06.823Z,0
2017-07-17T01:40:08.653Z,0
2017-07-17T01:41:10.464Z,0
2017-07-17T01:42:12.352Z,0
2017-07-17T01:43:14.218Z,0
2017-07-17T01:44:16.090Z,0
2017-07-17T01:45:30.234Z,0
2017-07-17T01:46:32.122Z,0
2017-07-17T01:47:34.014Z,0
2017-07-17T01:48:35.888Z,0
2017-07-17T01:49:37.712Z,0
2017-07-17T01:50:39.541Z,0
2017-07-17T01:51:41.433Z,0
2017-07-17T01:52:43.324Z,0
2017-07-17T01:53:45.214Z,0
2017-07-17T01:54:59.375Z,0
2017-07-17T01:56:01.246Z,0
2017-07-17T01:57:03.114Z,0
2017-07-17T01:58:04.980Z,0
2017-07-17T01:59:06.814Z,0
2017-07-17T02:00:08.641Z,0
2017-07-17T02:01:10.510Z,0
2017-07-17T02:02:12.403Z,0
2017-07-17T02:03:14.293Z,0
2017-07-17T02:04:28.461Z,0
2017-07-17T02:05:30.354Z,0
2017-07-17T02:06:32.244Z,0
2017-07-17T02:07:34.134Z,0
2017-07-17T02:08:35.968Z,0
2017-07-17T02:09:37.796Z,0
2017-07-17T02:10:39.668Z,0
2017-07-17T02:11:41.530Z,0
2017-07-17T02:12:43.419Z,0
2017-07-17T02:13:57.593Z,0
2017-07-17T02:14:59.434Z,0
2017-07-17T02:16:01.308Z,0
2017-07-17T02:17:03.170Z,0
2017-07-17T02:18:05.001Z,0
2017-07-17T02:19:06.827Z,0
2017-07-17T02:20:08.699Z,0
2017-07-17T02:21:10.562Z,0
2017-07-17T02:22:12.430Z,0
2017-07-17T02:23:26.575Z,0
2017-07-17T02:24:28.442Z,0
2017-07-17T02:25:30.311Z,0
2017-07-17T02:26:32.198Z,0
2017-07-17T02:27:34.011Z,0
2017-07-17T02:28:35.807Z,0
2017-07-17T02:29:37.680Z,0
2017-07-17T02:30:39.565Z,0
2017-07-17T02:31:41.438Z,4
2017-07-17T02:32:55.577Z,4
2017-07-17T02:33:57.442Z,0
2017-07-17T02:34:59.309Z,4
2017-07-17T02:36:01.172Z,4
2017-07-17T02:37:02.980Z,4
2017-07-17T02:38:04.792Z,4
2017-07-17T02:39:06.680Z,4
2017-07-17T02:40:08.550Z,8
2017-07-17T02:41:10.419Z,8
2017-07-17T02:42:24.566Z,12
2017-07-17T02:43:26.455Z,8
2017-07-17T02:44:28.328Z,12
2017-07-17T02:45:30.216Z,12
2017-07-17T02:46:32.022Z,12
2017-07-17T02:47:33.836Z,12
2017-07-17T02:48:35.706Z,16
2017-07-17T02:49:37.597Z,20
2017-07-17T02:50:39.463Z,20
2017-07-17T02:51:53.606Z,28
2017-07-17T02:52:55.476Z,32
2017-07-17T02:53:57.348Z,40
2017-07-17T02:54:59.241Z,44
2017-07-17T02:56:01.070Z,48
2017-07-17T02:57:02.881Z,56
2017-07-17T02:58:04.755Z,64
2017-07-17T02:59:06.646Z,68
2017-07-17T03:00:08.514Z,76
2017-07-17T03:01:22.691Z,88
2017-07-17T03:02:24.584Z,96
2017-07-17T03:03:26.473Z,108
2017-07-17T03:04:28.347Z,116
2017-07-17T03:05:30.187Z,128
2017-07-17T03:06:32.013Z,136
2017-07-17T03:07:33.886Z,140
2017-07-17T03:08:35.776Z,152
2017-07-17T03:09:37.647Z,160
2017-07-17T03:10:51.818Z,176
2017-07-17T03:11:53.707Z,196
2017-07-17T03:12:55.582Z,220
2017-07-17T03:13:57.469Z,232
2017-07-17T03:14:59.282Z,244
2017-07-17T03:16:01.091Z,256
2017-07-17T03:17:02.964Z,264
2017-07-17T03:18:04.858Z,272
2017-07-17T03:19:06.732Z,280
2017-07-17T03:20:20.882Z,288
2017-07-17T03:21:22.776Z,296
2017-07-17T03:22:24.667Z,316
2017-07-17T03:23:26.541Z,344
2017-07-17T03:24:28.357Z,380
2017-07-17T03:25:30.171Z,416
2017-07-17T03:26:32.062Z,440
2017-07-17T03:27:33.939Z,464
2017-07-17T03:28:35.833Z,508
2017-07-17T03:29:49.979Z,572
2017-07-17T03:30:51.855Z,600
2017-07-17T03:31:53.731Z,616
2017-07-17T03:32:55.606Z,636
2017-07-17T03:33:57.417Z,648
2017-07-17T03:34:59.249Z,676
2017-07-17T03:36:01.145Z,720
2017-07-17T03:37:03.042Z,764
2017-07-17T03:38:04.916Z,816
2017-07-17T03:39:19.060Z,860
2017-07-17T03:40:20.953Z,896
2017-07-17T03:41:22.834Z,948
2017-07-17T03:42:24.726Z,964
2017-07-17T03:43:26.536Z,980
2017-07-17T03:44:28.347Z,988
2017-07-17T03:45:30.222Z,1032
2017-07-17T03:46:32.094Z,1044
2017-07-17T03:47:33.991Z,1052
2017-07-17T03:48:48.135Z,1080
2017-07-17T03:49:50.008Z,1092
2017-07-17T03:50:51.882Z,1108
2017-07-17T03:51:53.773Z,1124
2017-07-17T03:52:55.589Z,1156
2017-07-17T03:53:57.419Z,1208
2017-07-17T03:54:59.297Z,1264
2017-07-17T03:56:01.195Z,1336
2017-07-17T03:57:03.066Z,1420
2017-07-17T03:58:17.211Z,1476
2017-07-17T03:59:19.082Z,1516
2017-07-17T04:00:20.954Z,1500
2017-07-17T04:01:22.825Z,1476
2017-07-17T04:02:24.639Z,1484
2017-07-17T04:03:26.477Z,1484
2017-07-17T04:04:28.375Z,1504
2017-07-17T04:05:30.270Z,1616
2017-07-17T04:06:32.167Z,1820
2017-07-17T04:07:46.317Z,2108
2017-07-17T04:08:48.185Z,2308
2017-07-17T04:09:50.087Z,2480
2017-07-17T04:10:51.978Z,2596
2017-07-17T04:11:53.809Z,2704
2017-07-17T04:12:55.625Z,2832
2017-07-17T04:13:57.524Z,2872
2017-07-17T04:14:59.390Z,3072
2017-07-17T04:16:01.268Z,3276
2017-07-17T04:17:15.438Z,3432
2017-07-17T04:18:17.314Z,3408
2017-07-17T04:19:19.191Z,3332
2017-07-17T04:20:21.086Z,3244
2017-07-17T04:21:22.924Z,3232
2017-07-17T04:22:24.756Z,3240
2017-07-17T04:23:26.633Z,3212
2017-07-17T04:24:28.528Z,3144
2017-07-17T04:25:30.408Z,2944
2017-07-17T04:26:44.583Z,2848
2017-07-17T04:27:46.478Z,3028
2017-07-17T04:28:48.376Z,3224
2017-07-17T04:29:50.242Z,3308
2017-07-17T04:30:52.055Z,3320
2017-07-17T04:31:53.868Z,3356
2017-07-17T04:32:55.745Z,3372
2017-07-17T04:33:57.616Z,3340
2017-07-17T04:34:59.513Z,3348
2017-07-17T04:36:13.684Z,3388
2017-07-17T04:37:15.555Z,3408
2017-07-17T04:38:17.430Z,3428
2017-07-17T04:39:19.329Z,3564
2017-07-17T04:40:21.160Z,3700
2017-07-17T04:41:23.007Z,3792
2017-07-17T04:42:24.844Z,3896
2017-07-17T04:43:26.717Z,3976
2017-07-17T04:44:28.593Z,3996
2017-07-17T04:45:42.738Z,4044
2017-07-17T04:46:44.609Z,4112
2017-07-17T04:47:46.483Z,4220
2017-07-17T04:48:48.360Z,4320
2017-07-17T04:49:50.196Z,4412
2017-07-17T04:50:52.029Z,4456
2017-07-17T04:51:53.908Z,4464
2017-07-17T04:52:55.778Z,4460
2017-07-17T04:53:57.658Z,4480
2017-07-17T04:55:11.827Z,4568
2017-07-17T04:56:13.723Z,4636
2017-07-17T04:57:15.597Z,4696
2017-07-17T04:58:17.471Z,4784
2017-07-17T04:59:19.307Z,4840
2017-07-17T05:00:21.147Z,4900
2017-07-17T05:01:23.040Z,4984
2017-07-17T05:02:24.919Z,5032
2017-07-17T05:03:26.814Z,5000
2017-07-17T05:04:40.959Z,5048
2017-07-17T05:05:42.837Z,5080
2017-07-17T05:06:44.733Z,5040
2017-07-17T05:07:46.629Z,5036
2017-07-17T05:08:48.464Z,4992
2017-07-17T05:09:50.285Z,4944
2017-07-17T05:10:52.176Z,4940
2017-07-17T05:11:54.055Z,4948
2017-07-17T05:12:55.944Z,4968
2017-07-17T05:14:10.092Z,4988
2017-07-17T05:15:11.959Z,4996
2017-07-17T05:16:13.851Z,4992
2017-07-17T05:17:15.737Z,4964
2017-07-17T05:18:17.573Z,4892
2017-07-17T05:19:19.411Z,4820
2017-07-17T05:20:21.283Z,4740
2017-07-17T05:21:23.160Z,4640
2017-07-17T05:22:25.036Z,4628
2017-07-17T05:23:39.208Z,4656
2017-07-17T05:24:41.105Z,4780
2017-07-17T05:25:43.002Z,4956
2017-07-17T05:26:44.878Z,5168
2017-07-17T05:27:46.689Z,5368
2017-07-17T05:28:48.510Z,5552
2017-07-17T05:29:50.405Z,5712
2017-07-17T05:30:52.282Z,5800
2017-07-17T05:31:54.180Z,5860
2017-07-17T05:33:08.351Z,5920
2017-07-17T05:34:10.226Z,5964
2017-07-17T05:35:12.096Z,6076
2017-07-17T05:36:13.974Z,6256
2017-07-17T05:37:15.785Z,6456
2017-07-17T05:38:17.601Z,6632
2017-07-17T05:39:19.502Z,6804
2017-07-17T05:40:21.398Z,6984
2017-07-17T05:41:23.291Z,7156
2017-07-17T05:42:37.422Z,7300
2017-07-17T05:43:39.236Z,7136
2017-07-17T05:44:41.071Z,6952
2017-07-17T05:45:42.907Z,6808
2017-07-17T05:46:44.777Z,6828
2017-07-17T05:47:46.648Z,6408
2017-07-17T05:48:48.505Z,6280
2017-07-17T05:49:50.317Z,6292
2017-07-17T05:50:52.159Z,6536
2017-07-17T05:52:06.418Z,7812
2017-07-17T05:53:08.316Z,8496
2017-07-17T05:54:10.214Z,8556
2017-07-17T05:55:12.111Z,8616
2017-07-17T05:56:13.943Z,8824
2017-07-17T05:57:15.763Z,8740
2017-07-17T05:58:17.657Z,8720
2017-07-17T05:59:19.532Z,8516
2017-07-17T06:00:21.425Z,8404
2017-07-17T06:01:35.577Z,8456
2017-07-17T06:02:37.472Z,8976
2017-07-17T06:03:39.351Z,9028
2017-07-17T06:04:41.224Z,8916
2017-07-17T06:05:43.058Z,8924
2017-07-17T06:06:44.871Z,9032
2017-07-17T06:07:46.750Z,9208
2017-07-17T06:08:48.650Z,9368
2017-07-17T06:09:50.549Z,9500
2017-07-17T06:11:04.699Z,9576
2017-07-17T06:12:06.597Z,9616
2017-07-17T06:13:08.478Z,9728
2017-07-17T06:14:10.351Z,9964
2017-07-17T06:15:12.171Z,10156
2017-07-17T06:16:14.008Z,10252
2017-07-17T06:17:15.909Z,10264
2017-07-17T06:18:17.787Z,10200
2017-07-17T06:19:19.648Z,10020
2017-07-17T06:20:33.796Z,9676
2017-07-17T06:21:35.675Z,9396
2017-07-17T06:22:37.578Z,9200
2017-07-17T06:23:39.473Z,9084
2017-07-17T06:24:41.293Z,9072
2017-07-17T06:25:43.133Z,9088
2017-07-17T06:26:45.010Z,9140
2017-07-17T06:27:46.888Z,9140
2017-07-17T06:28:48.790Z,9196
2017-07-17T06:30:02.972Z,9064
2017-07-17T06:31:04.851Z,9120
2017-07-17T06:32:06.753Z,9448
2017-07-17T06:33:08.650Z,9860
2017-07-17T06:34:10.466Z,10312
2017-07-17T06:35:12.290Z,10616
2017-07-17T06:36:14.189Z,10812
2017-07-17T06:37:16.094Z,10548
2017-07-17T06:38:17.985Z,10324
2017-07-17T06:39:32.145Z,9900
2017-07-17T06:40:34.044Z,9632
2017-07-17T06:41:35.939Z,9564
2017-07-17T06:42:37.818Z,9756
2017-07-17T06:43:39.659Z,10120
2017-07-17T06:44:41.498Z,10528
2017-07-17T06:45:43.381Z,10872
2017-07-17T06:46:45.283Z,11272
2017-07-17T06:47:47.185Z,11604
2017-07-17T06:49:01.339Z,11980
2017-07-17T06:50:03.210Z,11896
2017-07-17T06:51:05.096Z,11696
2017-07-17T06:52:06.991Z,11284
2017-07-17T06:53:08.813Z,10796
2017-07-17T06:54:10.654Z,10864
2017-07-17T06:55:12.554Z,10436
2017-07-17T06:56:14.435Z,10004
2017-07-17T06:57:16.315Z,10036
2017-07-17T06:58:30.514Z,10372
2017-07-17T06:59:32.391Z,10892
2017-07-17T07:00:34.276Z,11000
2017-07-17T07:01:36.181Z,10392
2017-07-17T07:02:38.021Z,9456
2017-07-17T07:03:39.859Z,8256
2017-07-17T07:04:41.760Z,7172
2017-07-17T07:05:43.634Z,7284
2017-07-17T07:06:45.538Z,7516
2017-07-17T07:07:59.706Z,7428
2017-07-17T07:09:01.586Z,7192
2017-07-17T07:10:03.465Z,7020
2017-07-17T07:11:05.367Z,7204
2017-07-17T07:12:07.203Z,7208
2017-07-17T07:13:09.019Z,6096
2017-07-17T07:14:10.898Z,5884
2017-07-17T07:15:12.800Z,5764
2017-07-17T07:16:14.697Z,6640
2017-07-17T07:17:28.852Z,5972
2017-07-17T07:18:30.756Z,5932
2017-07-17T07:19:32.629Z,6280
2017-07-17T07:20:34.508Z,6896
2017-07-17T07:21:36.348Z,7120
2017-07-17T07:22:38.184Z,7412
2017-07-17T07:23:40.065Z,8568
2017-07-17T07:24:41.964Z,9384
2017-07-17T07:25:43.839Z,8876
2017-07-17T07:26:57.984Z,6084
2017-07-17T07:27:59.868Z,5032
2017-07-17T07:29:01.766Z,5732
2017-07-17T07:30:03.637Z,6904
2017-07-17T07:31:05.456Z,7308
2017-07-17T07:32:07.297Z,7496
2017-07-17T07:33:09.199Z,7932
2017-07-17T07:34:11.098Z,9152
2017-07-17T07:35:12.978Z,10140
2017-07-17T07:36:27.125Z,9904
2017-07-17T07:37:29.003Z,9804
2017-07-17T07:38:30.880Z,8552
2017-07-17T07:39:32.782Z,8000
2017-07-17T07:40:34.603Z,8616
2017-07-17T07:41:36.434Z,8512
2017-07-17T07:42:38.315Z,7332
2017-07-17T07:43:40.192Z,7516
2017-07-17T07:44:42.068Z,9308
2017-07-17T07:45:56.239Z,10124
2017-07-17T07:46:58.139Z,8960
2017-07-17T07:48:00.020Z,8140
2017-07-17T07:49:01.893Z,8744
2017-07-17T07:50:03.729Z,9928
2017-07-17T07:51:05.541Z,10276
2017-07-17T07:52:07.422Z,10216
2017-07-17T07:53:09.322Z,10000
2017-07-17T07:54:11.206Z,9604
2017-07-17T07:55:25.379Z,10436
2017-07-17T07:56:27.259Z,11724
2017-07-17T07:57:29.162Z,12320
2017-07-17T07:58:31.039Z,12244
2017-07-17T07:59:32.879Z,11964
2017-07-17T08:00:34.717Z,11420
2017-07-17T08:01:36.597Z,11436
2017-07-17T08:02:38.476Z,11236
2017-07-17T08:03:40.379Z,9520
2017-07-17T08:04:54.552Z,8372
2017-07-17T08:05:56.457Z,9804
2017-07-17T08:06:58.333Z,11620
2017-07-17T08:08:00.212Z,11496
2017-07-17T08:09:02.048Z,11660
2017-07-17T08:10:03.866Z,11028
2017-07-17T08:11:05.765Z,9500
2017-07-17T08:12:07.639Z,8032
2017-07-17T08:13:09.517Z,8116
2017-07-17T08:14:23.691Z,10216
2017-07-17T08:15:25.590Z,11276
2017-07-17T08:16:27.494Z,12024
2017-07-17T08:17:29.371Z,12768
2017-07-17T08:18:31.199Z,12924
2017-07-17T08:19:33.041Z,12572
2017-07-17T08:20:34.944Z,12012
2017-07-17T08:21:36.847Z,11664
2017-07-17T08:22:38.748Z,11688
2017-07-17T08:23:52.902Z,12360
2017-07-17T08:24:54.807Z,12904
2017-07-17T08:25:56.710Z,12744
2017-07-17T08:26:58.586Z,11624
2017-07-17T08:28:00.406Z,9776
2017-07-17T08:29:02.243Z,9356
2017-07-17T08:30:04.144Z,10268
2017-07-17T08:31:06.040Z,11312
2017-07-17T08:32:07.920Z,11992
2017-07-17T08:33:22.066Z,12296
2017-07-17T08:34:23.949Z,13756
2017-07-17T08:35:25.824Z,14232
2017-07-17T08:36:27.711Z,13704
2017-07-17T08:37:29.529Z,12668
2017-07-17T08:38:31.368Z,11744
2017-07-17T08:39:33.273Z,11296
2017-07-17T08:40:35.175Z,10408
2017-07-17T08:41:37.068Z,9184
2017-07-17T08:42:51.222Z,8084
2017-07-17T08:43:53.099Z,7736
2017-07-17T08:44:55.001Z,7708
2017-07-17T08:45:56.902Z,7856
2017-07-17T08:46:58.735Z,8056
2017-07-17T08:48:00.551Z,8208
2017-07-17T08:49:02.452Z,8348
2017-07-17T08:50:04.348Z,8568
2017-07-17T08:51:06.228Z,8896
2017-07-17T08:52:20.399Z,9048
2017-07-17T08:53:22.306Z,9052
2017-07-17T08:54:24.201Z,9156
2017-07-17T08:55:26.092Z,9388
2017-07-17T08:56:27.910Z,9676
2017-07-17T08:57:29.746Z,10004
2017-07-17T08:58:31.623Z,10184
2017-07-17T08:59:33.499Z,10216
2017-07-17T09:00:35.378Z,10252
2017-07-17T09:01:49.533Z,10496
2017-07-17T09:02:51.430Z,11028
2017-07-17T09:03:53.308Z,11844
2017-07-17T09:04:55.184Z,12880
2017-07-17T09:05:57.018Z,13872
2017-07-17T09:06:58.840Z,14952
2017-07-17T09:08:00.745Z,16016
2017-07-17T09:09:02.641Z,16800
2017-07-17T09:10:04.540Z,17024
2017-07-17T09:11:18.689Z,16992
2017-07-17T09:12:20.569Z,17312
2017-07-17T09:13:22.469Z,17664
2017-07-17T09:14:24.342Z,17824
2017-07-17T09:15:26.163Z,17984
2017-07-17T09:16:28.005Z,18208
2017-07-17T09:17:29.909Z,18464
2017-07-17T09:18:31.812Z,18592
2017-07-17T09:19:33.711Z,18464
2017-07-17T09:20:47.883Z,17920
2017-07-17T09:21:49.761Z,17664
2017-07-17T09:22:51.639Z,18144
2017-07-17T09:23:53.543Z,19296
2017-07-17T09:24:55.382Z,20352
2017-07-17T09:25:57.221Z,19904
2017-07-17T09:26:59.124Z,18688
2017-07-17T09:28:01.024Z,17824
2017-07-17T09:29:02.926Z,18464
2017-07-17T09:30:17.076Z,18944
2017-07-17T09:31:18.978Z,18976
2017-07-17T09:32:20.855Z,19904
2017-07-17T09:33:22.734Z,20768
2017-07-17T09:34:24.547Z,18176
2017-07-17T09:35:26.369Z,15968
2017-07-17T09:36:28.271Z,14632
2017-07-17T09:37:30.149Z,13460
2017-07-17T09:38:32.029Z,11732
2017-07-17T09:39:46.205Z,8864
2017-07-17T09:40:48.083Z,7512
2017-07-17T09:41:49.984Z,7504
2017-07-17T09:42:51.885Z,8116
2017-07-17T09:43:53.703Z,9104
2017-07-17T09:44:55.517Z,10904
2017-07-17T09:45:57.397Z,13080
2017-07-17T09:46:59.295Z,15976
2017-07-17T09:48:01.174Z,18176
2017-07-17T09:49:15.352Z,18464
2017-07-17T09:50:17.253Z,18272
2017-07-17T09:51:19.138Z,18048
2017-07-17T09:52:21.041Z,17248
2017-07-17T09:53:22.883Z,17280
2017-07-17T09:54:24.721Z,17600
2017-07-17T09:55:26.608Z,18016
2017-07-17T09:56:28.483Z,18944
2017-07-17T09:57:30.380Z,19808
2017-07-17T09:58:44.515Z,20192
2017-07-17T09:59:46.396Z,19680
2017-07-17T10:00:48.275Z,18592
2017-07-17T10:01:50.174Z,18560
2017-07-17T10:02:51.994Z,18592
2017-07-17T10:03:53.837Z,18720
2017-07-17T10:04:55.739Z,18752
2017-07-17T10:05:57.635Z,17888
2017-07-17T10:06:59.516Z,17728
2017-07-17T10:08:13.666Z,16992
2017-07-17T10:09:15.547Z,14276
2017-07-17T10:10:17.424Z,11584
2017-07-17T10:11:19.324Z,10636
2017-07-17T10:12:21.166Z,11476
2017-07-17T10:13:23.000Z,11716
2017-07-17T10:14:24.883Z,12524
2017-07-17T10:15:26.760Z,13720
2017-07-17T10:16:28.662Z,15000
2017-07-17T10:17:42.835Z,16480
2017-07-17T10:18:44.715Z,17056
2017-07-17T10:19:46.591Z,16800
2017-07-17T10:20:48.470Z,16164
2017-07-17T10:21:50.316Z,15824
2017-07-17T10:22:52.153Z,16140
2017-07-17T10:23:54.035Z,16384
2017-07-17T10:24:55.963Z,16544
2017-07-17T10:25:57.815Z,17952
2017-07-17T10:27:11.969Z,19200
2017-07-17T10:28:13.841Z,18496
2017-07-17T10:29:15.722Z,17856
2017-07-17T10:30:17.624Z,17504
2017-07-17T10:31:19.462Z,16832
2017-07-17T10:32:21.282Z,16224
2017-07-17T10:33:23.168Z,15000
2017-07-17T10:34:25.042Z,14136
2017-07-17T10:35:26.942Z,13216
2017-07-17T10:36:41.091Z,12636
2017-07-17T10:37:42.976Z,12224
2017-07-17T10:38:44.882Z,12464
2017-07-17T10:39:46.780Z,12208
2017-07-17T10:40:48.597Z,11464
2017-07-17T10:41:50.422Z,10608
2017-07-17T10:42:52.323Z,9996
2017-07-17T10:43:54.226Z,9616
2017-07-17T10:44:56.107Z,9088
2017-07-17T10:46:10.254Z,8564
2017-07-17T10:47:12.151Z,8216
2017-07-17T10:48:14.055Z,8056
2017-07-17T10:49:15.934Z,8088
2017-07-17T10:50:17.770Z,8348
2017-07-17T10:51:19.589Z,8384
2017-07-17T10:52:21.491Z,8200
2017-07-17T10:53:23.387Z,8228
2017-07-17T10:54:25.267Z,8368
2017-07-17T10:55:39.441Z,8652
2017-07-17T10:56:41.319Z,9068
2017-07-17T10:57:43.218Z,9736
2017-07-17T10:58:45.094Z,10456
2017-07-17T10:59:46.912Z,11252
2017-07-17T11:00:48.726Z,12096
2017-07-17T11:01:50.606Z,12688
2017-07-17T11:02:52.486Z,12904
2017-07-17T11:03:54.362Z,12696
2017-07-17T11:05:08.515Z,13388
2017-07-17T11:06:10.419Z,14440
2017-07-17T11:07:12.317Z,15280
2017-07-17T11:08:14.201Z,15668
2017-07-17T11:09:16.039Z,16544
2017-07-17T11:10:17.859Z,16672
2017-07-17T11:11:19.740Z,17504
2017-07-17T11:12:21.637Z,17920
2017-07-17T11:13:23.520Z,18304
2017-07-17T11:14:37.692Z,18752
2017-07-17T11:15:39.570Z,19072
2017-07-17T11:16:41.449Z,18272
2017-07-17T11:17:43.354Z,17408
2017-07-17T11:18:45.193Z,16320
2017-07-17T11:19:47.047Z,14908
2017-07-17T11:20:48.867Z,14084
2017-07-17T11:21:50.741Z,13552
2017-07-17T11:22:52.621Z,13516
2017-07-17T11:24:06.796Z,13208
2017-07-17T11:25:08.678Z,13012
2017-07-17T11:26:10.588Z,12452
2017-07-17T11:27:12.485Z,11760
2017-07-17T11:28:14.305Z,11700
2017-07-17T11:29:16.131Z,12524
2017-07-17T11:30:17.968Z,13576
2017-07-17T11:31:19.780Z,14116
2017-07-17T11:32:21.598Z,15648
2017-07-17T11:33:35.757Z,17312
2017-07-17T11:34:37.633Z,17184
2017-07-17T11:35:39.533Z,17632
2017-07-17T11:36:41.410Z,17984
2017-07-17T11:37:43.226Z,18240
2017-07-17T11:38:45.045Z,18304
2017-07-17T11:39:46.928Z,17760
2017-07-17T11:40:48.812Z,17088
2017-07-17T11:41:50.712Z,16448
2017-07-17T11:43:04.867Z,16256
2017-07-17T11:44:06.749Z,16192
2017-07-17T11:45:08.628Z,15460
2017-07-17T11:56:29.416Z,17440
2017-07-17T11:58:20.330Z,16768
2017-07-17T11:59:22.208Z,16416
2017-07-17T12:00:24.112Z,16640
2017-07-17T12:01:26.009Z,17280
2017-07-17T12:02:27.830Z,18048
2017-07-17T12:03:29.680Z,18368
2017-07-17T12:04:31.554Z,17888
2017-07-17T12:05:45.705Z,16896
2017-07-17T12:06:47.611Z,16704
2017-07-17T12:07:49.515Z,16928
2017-07-17T12:08:51.414Z,17856
2017-07-17T12:09:53.233Z,18880
2017-07-17T12:10:55.073Z,19232
2017-07-17T12:11:56.976Z,19488
2017-07-17T12:12:58.873Z,19680
2017-07-17T12:14:00.759Z,20224
2017-07-17T12:15:14.937Z,20448
2017-07-17T12:16:16.844Z,19392
2017-07-17T12:17:18.725Z,18080
2017-07-17T12:18:20.629Z,17216
2017-07-17T12:19:22.471Z,16864
2017-07-17T12:20:24.310Z,16800
2017-07-17T12:21:26.196Z,16544
2017-07-17T12:22:28.076Z,16352
2017-07-17T12:23:29.975Z,16576
2017-07-17T12:24:44.150Z,17856
2017-07-17T12:25:46.029Z,19104
2017-07-17T12:26:47.909Z,20096
2017-07-17T12:27:49.816Z,20096
2017-07-17T12:28:51.646Z,19136
2017-07-17T12:29:53.490Z,17664
2017-07-17T12:30:55.391Z,16036
2017-07-17T12:31:57.272Z,14800
2017-07-17T12:32:59.173Z,13504
2017-07-17T12:34:13.349Z,12040
2017-07-17T12:35:15.231Z,11280
2017-07-17T12:36:17.134Z,11324
2017-07-17T12:37:19.005Z,12144
2017-07-17T12:38:20.824Z,13216
2017-07-17T12:39:22.669Z,14136
2017-07-17T12:40:24.522Z,14864
2017-07-17T12:41:26.401Z,15448
2017-07-17T12:42:28.283Z,15380
2017-07-17T12:43:42.436Z,14504
2017-07-17T12:44:44.338Z,13008
2017-07-17T12:45:46.244Z,11220
2017-07-17T12:46:48.109Z,9344
2017-07-17T12:47:49.938Z,7336
2017-07-17T12:48:51.772Z,5908
2017-07-17T12:49:53.672Z,6136
2017-07-17T12:50:55.564Z,7428
2017-07-17T12:51:57.445Z,10064
2017-07-17T12:53:11.594Z,12952
2017-07-17T12:54:13.477Z,14048
2017-07-17T12:55:15.373Z,14352
2017-07-17T12:56:17.245Z,14460
2017-07-17T12:57:19.068Z,14912
2017-07-17T12:58:20.883Z,15848
2017-07-17T12:59:22.786Z,17184
2017-07-17T13:00:24.657Z,18400
2017-07-17T13:01:26.558Z,19200
2017-07-17T13:02:40.730Z,19328
2017-07-17T13:03:42.631Z,18848
2017-07-17T13:04:44.533Z,18272
2017-07-17T13:05:46.431Z,17792
2017-07-17T13:06:48.247Z,17824
2017-07-17T13:07:50.064Z,18528
2017-07-17T13:08:51.943Z,19776
2017-07-17T13:09:53.817Z,20544
2017-07-17T13:10:55.693Z,20096
2017-07-17T13:12:09.853Z,17440
2017-07-17T13:13:11.756Z,15108
2017-07-17T13:14:13.662Z,12732
2017-07-17T13:15:15.563Z,10488
2017-07-17T13:16:17.404Z,8520
2017-07-17T13:17:19.242Z,7536
2017-07-17T13:18:21.116Z,6984
2017-07-17T13:19:22.988Z,6848
2017-07-17T13:20:24.865Z,6768
2017-07-17T13:21:39.022Z,6556
2017-07-17T13:22:40.895Z,6464
2017-07-17T13:23:42.764Z,6452
2017-07-17T13:24:44.645Z,6452
2017-07-17T13:25:46.487Z,6468
2017-07-17T13:26:48.328Z,6464
2017-07-17T13:27:50.220Z,6488
2017-07-17T13:28:52.101Z,6772
2017-07-17T13:29:53.995Z,7044
2017-07-17T13:31:08.156Z,6832
2017-07-17T13:32:10.061Z,6720
2017-07-17T13:33:11.950Z,6632
2017-07-17T13:34:13.829Z,6588
2017-07-17T13:35:15.657Z,6608
2017-07-17T13:36:17.462Z,6768
2017-07-17T13:37:19.362Z,6852
2017-07-17T13:38:21.237Z,7104
2017-07-17T13:39:23.110Z,7484
2017-07-17T13:40:37.266Z,7336
2017-07-17T13:41:39.171Z,7040
2017-07-17T13:42:41.052Z,7212
2017-07-17T13:43:42.953Z,7264
2017-07-17T13:44:44.790Z,7240
2017-07-17T13:45:46.608Z,7548
2017-07-17T13:46:48.503Z,7848
2017-07-17T13:47:50.380Z,8208
2017-07-17T13:48:52.259Z,8676
2017-07-17T13:50:06.411Z,8860
2017-07-17T13:51:08.313Z,9620
2017-07-17T13:52:10.220Z,11020
2017-07-17T13:53:12.118Z,12088
2017-07-17T13:54:13.938Z,11508
2017-07-17T13:55:15.778Z,10720
2017-07-17T13:56:17.676Z,11608
2017-07-17T13:57:19.553Z,13708
2017-07-17T13:58:21.432Z,14860
2017-07-17T13:59:35.606Z,15152
2017-07-17T14:00:37.510Z,15840
2017-07-17T14:01:39.406Z,16864
2017-07-17T14:02:41.287Z,17664
2017-07-17T14:03:43.103Z,18944
2017-07-17T14:04:44.941Z,18496
2017-07-17T14:05:46.843Z,17472
2017-07-17T14:06:48.743Z,16960
2017-07-17T14:07:50.643Z,15968
2017-07-17T14:09:04.817Z,15000
2017-07-17T14:10:06.694Z,13924
2017-07-17T14:11:08.571Z,12672
2017-07-17T14:12:10.474Z,11956
2017-07-17T14:13:12.285Z,10716
2017-07-17T14:14:14.103Z,9528
2017-07-17T14:15:15.975Z,8984
2017-07-17T14:16:17.858Z,9132
2017-07-17T14:17:19.756Z,9840
2017-07-17T14:18:33.908Z,10880
2017-07-17T14:19:35.810Z,11808
2017-07-17T14:20:37.712Z,12876
2017-07-17T14:21:39.613Z,12992